TAF Text Data
IDs:
Format:
Raw Decoded Include METAR

Data at: 0554 UTC 03 Jul 2022

KDVN 030552Z AUTO 03004KT 10SM CLR 17/14 A3011 RMK AO2 SLP187 T01670139 10272 20156 402830128 51010


KMLI 030552Z 11003KT 10SM CLR 17/14 A3008 RMK AO2 SLP181 T01670144 10272 20167 402830139 51008

KMLI 030533Z 0306/0406 VRB02KT P6SM SKC
  FM031400 14007KT P6SM SKC